HNB weather

Huntingburg Airport
Huntingburg, Indiana, United States

Public forecast

Using degrees Fahrenheit for public forecast. Weather courtesy of forecast.io.

Current aviation weather report (METAR) for Huntingburg Airport

Retrieved 2020/05/29 10:56 UTC (18 minutes ago):

KHNB 291056Z AUTO 19006KT 10SM FEW036 OVC110 19/18 A2997 RMK AO2 SLP144 T01890183

Aviation forecast (TAF) for Huntingburg Airport

Retrieved 2020/05/29 06:21 UTC (5 hours ago):

TAF KHNB 290520Z 2906/3006 19006KT P6SM BKN100 FM291300 25009KT P6SM VCSH SCT015 BKN035 FM291500 26010KT 6SM SHRA OVC025 PROB30 2915/2920 4SM TSRA OVC018CB FM292100 31012KT P6SM OVC080 FM300000 32006KT P6SM FEW100